aviador You're here:

YPCC Decoded Metar

COCOS ISL INTL A in AUSTRALIA
Report Time2017-09-26 12:43:00
UTC Time2017-09-26 12:46:20
Flight Rules ifr IFR
Wind130° at 21 kt
W.Decomp.*RWY 15: 20.1 kt HW 6.1 kt LCW
W.Rank130° ranks 3
Current wind is above 130° avg. (13.3)
Visibility3400 m
Phenomena:N/A
Clouds:Scattered 028 Hf
Expected CloudBase > 2,800 ft AGL from Temp-Dew spread
CeilingNone
Temp25°C (ISA +10)
Dew Point18°C (65% RH)
AAT20.2°C
QNH1014 hPa
Density Alt1,411 ft
Elevation10 ft
Report Wrong Elevation
Raw Report
YPCC 261243Z AUTO 13021KT 3400 // SCT028 25/18 Q1014=

Extra information for YPCC:More info

Metar Taf Metar & Taf Last 4 Metars F.Rules Stats Wind Profile Meteogram Temp Stats Airport Information Weather charts Add Link Nearby VenuesMetar ALERT Operation Metar Decoded Social comments